Latest Coastal Weather Observations for Geelong Racecourse

IDV60701

Issued at 10:52 am EST Friday 21 July 2017 (issued every 10 minutes, with the page automatically refreshed every 10 minutes)

About coastal observations | Map of coastal stations | Coastal observations for VIC | Marine services | Other Formats
Station Details ID: 087184 Name: GEELONG RACECOURSE Lat: -38.17 Lon: 144.38 Height: 12.9 m
Data from the previous 72 hours. | See also: Recent months at Geelong Racecourse
Date/Time
EST
Temp
°C
Wind Pressure Rain since
9am
mm
Weather Cloud Vis
km
Sea
Height
m
Swell
Dir  Spd
kts
Gust
kts
hPa Trend Height
m
Period
s
Dir
21/10:30am 7.9 NW 7 9 1025.0 - 0.0 - - - - - - -
21/10:00am 7.5 NW 4 5 1024.8 - 0.0 - - - - - - -
21/09:30am 6.2 NW 5 7 1024.5 - 0.0 - - - - - - -
21/09:00am 5.0 WNW 1 3 1024.3 - 0.8 - - - - - - -
21/08:30am 3.2 WNW 3 6 1024.3 - 0.8 - - - - - - -
21/08:00am 2.2 WNW 3 4 1024.1 - 0.8 - - - - - - -
21/07:30am 2.5 WNW 5 7 1023.9 - 0.8 - - - - - - -
21/07:00am 2.6 WNW 5 7 1023.5 - 0.8 - - - - - - -
21/06:30am 3.0 WNW 5 9 1023.2 - 0.8 - - - - - - -
21/06:00am 2.4 WNW 5 7 1022.9 - 0.8 - - - - - - -
21/05:30am 2.4 WNW 5 7 1022.6 - 0.8 - - - - - - -
21/05:00am 2.4 WNW 6 8 1022.3 - 0.8 - - - - - - -
21/04:30am 2.9 NW 5 7 1022.1 - 0.8 - - - - - - -
21/04:00am 3.2 NW 3 4 1022.0 - 0.8 - - - - - - -
21/03:30am 4.0 WNW 2 3 1022.1 - 0.8 - - - - - - -
21/03:00am 4.3 WNW 3 5 1022.1 - 0.8 - - - - - - -
21/02:30am 5.5 SSE 2 3 1022.3 - 0.8 - - - - - - -
21/02:00am 4.5 WNW 2 4 1022.2 - 0.8 - - - - - - -
21/01:30am 4.2 WNW 4 5 1022.3 - 0.8 - - - - - - -
21/01:00am 4.3 NW 5 7 1022.6 - 0.8 - - - - - - -
21/12:30am 4.1 WNW 5 7 1022.8 - 0.8 - - - - - - -
21/12:00am 4.0 NW 4 6 1022.8 - 0.8 - - - - - - -
 
Date/Time
EST
Temp
°C
Wind Pressure Rain since
9am
mm
Weather Cloud Vis
km
Sea
Height
m
Swell
Dir  Spd
kts
Gust
kts
hPa Trend Height
m
Period
s
Dir
20/11:30pm 4.3 WNW 4 5 1022.8 - 0.8 - - - - - - -
20/11:00pm 4.7 WNW 3 4 1022.7 - 0.8 - - - - - - -
20/10:30pm 5.8 NW 4 5 1022.8 - 0.8 - - - - - - -
20/10:00pm 5.9 WNW 5 6 1022.7 - 0.8 - - - - - - -
20/09:30pm 5.5 WNW 4 5 1022.5 - 0.8 - - - - - - -
20/09:00pm 5.8 WNW 4 5 1022.1 - 0.8 - - - - - - -
20/08:30pm 6.6 NW 4 6 1022.0 - 0.8 - - - - - - -
20/08:00pm 6.7 W 4 5 1021.7 - 0.8 - - - - - - -
20/07:30pm 7.0 WSW 4 5 1021.5 - 0.8 - - - - - - -
20/07:00pm 7.6 W 5 6 1021.4 - 0.8 - - - - - - -
20/06:30pm 8.0 WSW 5 7 1021.0 - 0.6 - - - - - - -
20/06:00pm 7.9 W 5 7 1020.8 - 0.6 - - - - - - -
20/05:30pm 8.0 W 5 7 1020.6 - 0.6 - - - - - - -
20/05:00pm 8.5 WSW 8 11 1020.3 - 0.6 - - - - - - -
20/04:30pm 10.2 SW 10 15 1020.3 - 0.6 - - - - - - -
20/04:00pm 10.4 SSW 13 19 1020.3 - 0.6 - - - - - - -
20/03:30pm 10.0 WSW 5 8 1019.9 - 0.6 - - - - - - -
20/03:00pm 8.2 SSW 11 17 1019.9 - 0.4 Rain - - - - - -
20/02:30pm 9.6 SW 11 19 1019.5 - 0.2 - - - - - - -
20/02:00pm 9.9 - - - 1019.2 - - - - - - - - -
20/01:30pm 8.9 - - - 1019.4 - - - - - - - - -
20/01:00pm 9.8 SSW 16 25 1019.2 - 0.2 - - - - - - -
20/12:39pm 11.1 SW 18 29 1018.9 - 0.2 - - - - - - -
20/12:30pm 11.1 SW 17 26 1018.9 - 0.2 - - - - - - -
20/12:00pm 9.9 WSW 10 15 1018.7 - 0.2 Recent precip. - - - - - -
20/11:30am 10.1 WSW 12 17 1019.1 - 0.0 - - - - - - -
20/11:00am 9.9 SW 17 23 1019.0 - 0.0 - - - - - - -
20/10:30am 10.4 WSW 10 16 1018.6 - 0.0 - - - - - - -
20/10:00am 9.5 WSW 12 19 1018.4 - 0.0 - - - - - - -
20/09:30am 9.7 W 9 14 1017.8 - 0.0 - - - - - - -
20/09:00am 9.2 W 11 17 1017.6 - 2.4 - - - - - - -
20/08:30am 7.4 W 6 9 1017.3 - 2.4 - - - - - - -
20/08:00am 7.2 WNW 6 8 1017.1 - 2.4 - - - - - - -
20/07:30am 6.9 WNW 7 10 1016.9 - 2.4 - - - - - - -
20/07:00am 7.1 WNW 7 11 1016.9 - 2.4 - - - - - - -
20/06:30am 7.3 W 6 8 1016.6 - 2.4 - - - - - - -
20/06:00am 7.7 W 7 12 1016.5 - 2.2 - - - - - - -
20/05:30am 7.9 WNW 9 15 1016.2 - 2.2 - - - - - - -
20/05:00am 7.9 WNW 10 16 1016.1 - 2.2 - - - - - - -
20/04:30am 7.8 WNW 10 19 1016.0 - 2.2 - - - - - - -
20/04:00am 7.5 WNW 9 16 1016.0 - 2.2 - - - - - - -
20/03:30am 7.7 WNW 10 15 1016.0 - 2.2 - - - - - - -
20/03:00am 7.2 WNW 9 15 1016.3 - 2.2 - - - - - - -
20/02:30am 7.1 WNW 11 16 1016.2 - 2.2 - - - - - - -
20/02:00am 7.2 WNW 8 12 1016.6 - 2.2 - - - - - - -
20/01:30am 7.3 WNW 10 15 1016.6 - 2.2 - - - - - - -
20/01:00am 7.2 WNW 10 16 1016.8 - 2.2 - - - - - - -
20/12:30am 7.3 WNW 8 13 1017.2 - 2.2 - - - - - - -
20/12:00am 7.3 WNW 9 14 1017.5 - 2.2 - - - - - - -
 
Date/Time
EST
Temp
°C
Wind Pressure Rain since
9am
mm
Weather Cloud Vis
km
Sea
Height
m
Swell
Dir  Spd
kts
Gust
kts
hPa Trend Height
m
Period
s
Dir
19/11:30pm 7.1 WNW 7 11 1018.0 - 2.2 - - - - - - -
19/11:00pm 7.3 WNW 7 10 1018.0 - 2.2 - - - - - - -
19/10:30pm 7.7 WNW 6 9 1018.5 - 2.2 - - - - - - -
19/10:00pm 8.1 WNW 5 9 1018.6 - 2.2 - - - - - - -
19/09:30pm 7.9 W 7 9 1019.1 - 2.2 - - - - - - -
19/09:00pm 7.5 W 5 7 1018.7 - 2.2 - - - - - - -
19/08:30pm 8.0 W 8 11 1018.7 - 2.2 - - - - - - -
19/08:00pm 8.2 W 8 12 1018.7 - 2.2 - - - - - - -
19/07:30pm 8.0 W 6 9 1018.6 - 2.2 - - - - - - -
19/07:00pm 8.3 W 6 8 1018.1 - 2.2 - - - - - - -
19/06:30pm 9.0 W 6 9 1017.8 - 2.2 - - - - - - -
19/06:00pm 10.2 WSW 6 10 1017.5 - 2.2 - - - - - - -
19/05:30pm 10.5 WSW 5 7 1017.3 - 2.2 - - - - - - -
19/05:00pm 10.6 WSW 10 15 1017.5 - 2.2 - - - - - - -
19/04:30pm 10.9 WSW 10 14 1017.1 - 2.2 - - - - - - -
19/04:00pm 10.8 SW 14 21 1017.0 - 2.2 - - - - - - -
19/03:30pm 10.8 SW 13 19 1016.8 - 2.2 - - - - - - -
19/03:00pm 11.1 SW 12 18 1015.9 - 2.2 Recent precip. - - - - - -
19/02:30pm 10.6 SW 13 19 1015.8 - 2.2 - - - - - - -
19/02:23pm 10.4 SW 16 27 1015.7 - 2.2 - - - - - - -
19/02:00pm 11.4 SW 18 27 1015.2 - 1.6 - - - - - - -
19/01:41pm 11.4 SW 16 27 1015.2 - 1.6 - - - - - - -
19/01:30pm 10.7 SW 14 18 1015.1 - 1.6 - - - - - - -
19/01:06pm 10.8 SSW 16 29 1015.2 - 1.4 - - - - - - -
19/01:00pm 10.9 SSW 16 23 1015.1 - 1.2 - - - - - - -
19/12:30pm 11.4 SW 18 25 1015.0 - 1.2 - - - - - - -
19/12:25pm 11.8 SW 15 25 1014.8 - 1.2 - - - - - - -
19/12:00pm 11.2 SW 16 26 1014.7 - 1.2 Rain - - - - - -
19/11:58am 11.2 SW 15 26 1014.7 - 1.2 - - - - - - -
19/11:30am 12.5 SW 16 22 1014.4 - 1.0 - - - - - - -
19/11:20am 12.1 SSW 15 25 1014.2 - 1.0 - - - - - - -
19/11:00am 12.5 SW 14 20 1014.1 - 1.0 - - - - - - -
19/10:30am 11.5 SW 10 14 1013.8 - 1.0 - - - - - - -
19/10:00am 11.4 WSW 9 14 1013.2 - 0.2 - - - - - - -
19/09:30am 10.9 WSW 9 16 1012.8 - 0.2 - - - - - - -
19/09:00am 10.6 SW 10 15 1012.1 - 4.8 Rain - - - - - -
19/08:30am 10.7 SW 11 20 1011.6 - 4.4 - - - - - - -
19/08:00am 10.6 SW 13 19 1011.0 - 4.4 - - - - - - -
19/07:30am 10.6 SW 12 21 1010.5 - 4.2 - - - - - - -
19/07:00am 10.3 WSW 10 14 1009.8 - 3.4 - - - - - - -
19/06:30am 9.8 W 6 10 1008.9 - 2.6 - - - - - - -
19/06:00am 9.5 W 6 8 1008.5 - 2.0 Recent precip. - - - - - -
19/05:30am 9.7 W 8 13 1008.2 - 2.0 - - - - - - -
19/05:00am 9.7 W 8 11 1007.8 - 1.6 - - - - - - -
19/04:30am 9.6 W 7 11 1007.6 - 1.0 - - - - - - -
19/04:00am 9.5 W 8 13 1007.1 - 0.2 - - - - - - -
19/03:30am 9.4 W 9 13 1006.9 - 0.2 - - - - - - -
19/03:00am 9.2 W 7 10 1006.9 - 0.2 - - - - - - -
19/02:30am 8.9 WNW 6 11 1006.7 - 0.2 - - - - - - -
19/02:00am 9.0 W 7 11 1006.4 - 0.2 - - - - - - -
19/01:30am 9.1 WNW 6 12 1006.2 - 0.2 - - - - - - -
19/01:00am 8.9 WNW 7 13 1006.0 - 0.2 - - - - - - -
19/12:30am 8.8 WNW 8 11 1005.9 - 0.2 - - - - - - -
19/12:00am 8.8 WNW 9 15 1005.8 - 0.2 - - - - - - -
 
Date/Time
EST
Temp
°C
Wind Pressure Rain since
9am
mm
Weather Cloud Vis
km
Sea
Height
m
Swell
Dir  Spd
kts
Gust
kts
hPa Trend Height
m
Period
s
Dir
18/11:30pm 9.0 WNW 7 13 1006.0 - 0.2 - - - - - - -
18/11:00pm 8.4 NW 8 13 1006.1 - 0.2 - - - - - - -
18/10:30pm 8.0 NW 8 11 1006.2 - 0.2 - - - - - - -
18/10:00pm 8.0 NW 8 11 1006.2 - 0.2 - - - - - - -
18/09:30pm 7.8 NW 8 11 1006.3 - 0.2 - - - - - - -
18/09:00pm 7.8 NW 6 8 1006.3 - 0.2 - - - - - - -
18/08:30pm 8.1 NW 6 8 1006.2 - 0.2 - - - - - - -
18/08:00pm 8.5 NW 6 9 1006.2 - 0.2 - - - - - - -
18/07:30pm 9.1 NW 6 7 1006.1 - 0.2 - - - - - - -
18/07:00pm 9.7 NW 7 10 1005.9 - 0.2 - - - - - - -
18/06:30pm 10.5 NW 8 11 1005.7 - 0.2 - - - - - - -
18/06:00pm 11.1 NW 6 9 1005.7 - 0.2 - - - - - - -
18/05:30pm 12.2 NW 10 14 1005.4 - 0.2 - - - - - - -
18/05:00pm 13.0 NW 9 13 1005.1 - 0.2 - - - - - - -
18/04:30pm 13.9 NW 7 10 1004.9 - 0.2 - - - - - - -
18/04:00pm 13.1 WNW 9 13 1004.9 - 0.2 - - - - - - -
18/03:30pm 13.2 WNW 9 15 1005.0 - 0.2 - - - - - - -
18/03:00pm 12.5 WNW 11 18 1005.0 - 0.0 - - - - - - -
18/02:30pm 14.2 WNW 11 17 1004.6 - 0.0 - - - - - - -
18/02:00pm 13.4 WNW 12 19 1004.7 - 0.0 - - - - - - -
18/01:30pm 12.9 WNW 10 15 1004.8 - 0.0 - - - - - - -
18/01:00pm 13.0 WNW 12 17 1005.2 - 0.0 - - - - - - -
18/12:30pm 13.9 NW 12 18 1005.3 - 0.0 - - - - - - -
18/12:00pm 13.0 NW 10 15 1005.9 - 0.0 - - - - - - -
18/11:30am 13.3 NW 11 18 1006.2 - 0.0 - - - - - - -
18/11:00am 12.1 NW 12 17 1006.3 - 0.0 - - - - - - -

Other Formats:

Comma delimited format used in spreadsheet applications
http://www.bom.gov.au/fwo/IDV60701/IDV60701.94857.axf

JavaScript Object Notation format (JSON) in row-major order
http://www.bom.gov.au/fwo/IDV60701/IDV60701.94857.json